Terminal Aerodrome Forecast
Issued by NWS

Home | Current Version | Previous Version | Text Only | Print | Product List | Glossary On
Versions: 1 2 3 4 5 6 7 8 9 10 11 12 13 14 15 16 17 18 19 20 21 22 23 24 25
773
FTUS41 KPBZ 281159 CCA
TAFFKL
TAF COR
KFKL 281159Z 2812/2912 06003KT 3SM -SHRA BR OVC025
      TEMPO 2812/2814 1/2SM -SHRA
     FM281400 00000KT 3SM -SHRA BR OVC008
     FM282000 36005KT P6SM VCSH OVC015
     FM290300 33005KT P6SM OVC008
      AMD LTD TO CLD VIS AND WIND=

USA.gov is the U.S. government's official web portal to all federal, state and local government web resources and services.